sensor_id;sensor_type;location;lat;lon;timestamp;temperature;humidity
20777;DHT22;10548;47.504;8.248;2023-05-17T09:23:52;14.50;99.90
20777;DHT22;10548;47.504;8.248;2023-05-17T09:26:43;14.10;60.30
20777;DHT22;10548;47.504;8.248;2023-05-17T09:29:14;14.20;59.90
20777;DHT22;10548;47.504;8.248;2023-05-17T09:31:42;14.00;62.50
20777;DHT22;10548;47.504;8.248;2023-05-17T09:34:11;14.70;61.00
20777;DHT22;10548;47.504;8.248;2023-05-17T09:36:41;15.00;59.60
20777;DHT22;10548;47.504;8.248;2023-05-17T09:39:10;14.80;62.80
20777;DHT22;10548;47.504;8.248;2023-05-17T09:41:46;15.00;56.70
20777;DHT22;10548;47.504;8.248;2023-05-17T09:44:14;14.70;57.50
20777;DHT22;10548;47.504;8.248;2023-05-17T09:46:47;14.90;57.90
20777;DHT22;10548;47.504;8.248;2023-05-17T09:49:15;14.30;57.40
20777;DHT22;10548;47.504;8.248;2023-05-17T09:51:44;15.10;60.80
20777;DHT22;10548;47.504;8.248;2023-05-17T09:54:12;15.60;57.80
20777;DHT22;10548;47.504;8.248;2023-05-17T09:56:40;15.00;56.70
20777;DHT22;10548;47.504;8.248;2023-05-17T09:59:14;15.30;56.10
20777;DHT22;10548;47.504;8.248;2023-05-17T10:01:43;15.90;59.90
20777;DHT22;10548;47.504;8.248;2023-05-17T10:04:11;15.50;57.10
20777;DHT22;10548;47.504;8.248;2023-05-17T10:06:40;15.80;54.10
20777;DHT22;10548;47.504;8.248;2023-05-17T10:09:15;15.70;53.70
20777;DHT22;10548;47.504;8.248;2023-05-17T10:11:45;16.10;53.90
20777;DHT22;10548;47.504;8.248;2023-05-17T10:14:22;16.30;53.90
20777;DHT22;10548;47.504;8.248;2023-05-17T10:16:53;15.60;53.50
20777;DHT22;10548;47.504;8.248;2023-05-17T10:19:22;15.40;52.60
20777;DHT22;10548;47.504;8.248;2023-05-17T10:21:52;14.80;54.40
20777;DHT22;10548;47.504;8.248;2023-05-17T10:24:20;15.30;56.10
20777;DHT22;10548;47.504;8.248;2023-05-17T10:26:49;16.20;55.50
20777;DHT22;10548;47.504;8.248;2023-05-17T10:29:17;16.60;51.80
20777;DHT22;10548;47.504;8.248;2023-05-17T10:31:48;16.30;51.80
20777;DHT22;10548;47.504;8.248;2023-05-17T10:34:20;16.40;52.90
20777;DHT22;10548;47.504;8.248;2023-05-17T10:36:51;15.90;51.80
20777;DHT22;10548;47.504;8.248;2023-05-17T10:39:20;15.20;53.90
20777;DHT22;10548;47.504;8.248;2023-05-17T10:41:50;15.30;53.50
20777;DHT22;10548;47.504;8.248;2023-05-17T10:44:18;15.60;53.00
20777;DHT22;10548;47.504;8.248;2023-05-17T10:46:56;15.20;53.80
20777;DHT22;10548;47.504;8.248;2023-05-17T10:49:25;15.00;54.00
20777;DHT22;10548;47.504;8.248;2023-05-17T10:51:53;14.70;53.90
20777;DHT22;10548;47.504;8.248;2023-05-17T10:54:34;14.90;53.80
20777;DHT22;10548;47.504;8.248;2023-05-17T10:57:06;15.30;55.30
20777;DHT22;10548;47.504;8.248;2023-05-17T10:59:35;15.40;54.80
20777;DHT22;10548;47.504;8.248;2023-05-17T11:02:09;15.80;52.80
20777;DHT22;10548;47.504;8.248;2023-05-17T11:04:41;16.00;54.30
20777;DHT22;10548;47.504;8.248;2023-05-17T11:07:35;15.60;51.60
20777;DHT22;10548;47.504;8.248;2023-05-17T11:10:11;15.80;53.50
20777;DHT22;10548;47.504;8.248;2023-05-17T11:12:41;16.00;52.00
20777;DHT22;10548;47.504;8.248;2023-05-17T11:15:14;16.10;51.30
20777;DHT22;10548;47.504;8.248;2023-05-17T11:17:51;16.00;50.60
20777;DHT22;10548;47.504;8.248;2023-05-17T11:20:32;16.00;49.60
20777;DHT22;10548;47.504;8.248;2023-05-17T11:23:05;16.30;52.50
20777;DHT22;10548;47.504;8.248;2023-05-17T11:25:34;16.30;49.80
20777;DHT22;10548;47.504;8.248;2023-05-17T11:28:20;17.00;47.40
20777;DHT22;10548;47.504;8.248;2023-05-17T11:30:48;17.20;48.00
20777;DHT22;10548;47.504;8.248;2023-05-17T11:33:20;17.10;47.40
20777;DHT22;10548;47.504;8.248;2023-05-17T11:36:17;17.70;47.00
20777;DHT22;10548;47.504;8.248;2023-05-17T11:39:12;17.30;48.20
20777;DHT22;10548;47.504;8.248;2023-05-17T11:41:50;18.20;43.70
20777;DHT22;10548;47.504;8.248;2023-05-17T11:47:05;18.30;44.20
20777;DHT22;10548;47.504;8.248;2023-05-17T11:49:37;18.40;42.30
20777;DHT22;10548;47.504;8.248;2023-05-17T11:52:05;18.80;40.90
20777;DHT22;10548;47.504;8.248;2023-05-17T11:54:33;18.50;40.00
20777;DHT22;10548;47.504;8.248;2023-05-17T11:57:01;18.20;39.30
20777;DHT22;10548;47.504;8.248;2023-05-17T11:59:36;19.00;41.80
20777;DHT22;10548;47.504;8.248;2023-05-17T12:02:05;19.00;38.70
20777;DHT22;10548;47.504;8.248;2023-05-17T12:04:35;18.60;40.50
20777;DHT22;10548;47.504;8.248;2023-05-17T12:07:03;18.40;42.10
20777;DHT22;10548;47.504;8.248;2023-05-17T12:09:31;18.00;38.70
20777;DHT22;10548;47.504;8.248;2023-05-17T12:12:02;17.90;41.00
20777;DHT22;10548;47.504;8.248;2023-05-17T12:14:30;17.00;39.90
20777;DHT22;10548;47.504;8.248;2023-05-17T12:16:58;17.00;40.80
20777;DHT22;10548;47.504;8.248;2023-05-17T12:19:28;16.90;40.60
20777;DHT22;10548;47.504;8.248;2023-05-17T12:22:10;16.90;41.10
20777;DHT22;10548;47.504;8.248;2023-05-17T12:24:41;17.20;42.50
20777;DHT22;10548;47.504;8.248;2023-05-17T12:27:09;17.60;41.80
20777;DHT22;10548;47.504;8.248;2023-05-17T12:29:37;18.20;40.70
20777;DHT22;10548;47.504;8.248;2023-05-17T12:32:07;17.60;39.70
20777;DHT22;10548;47.504;8.248;2023-05-17T12:34:35;17.40;40.20
20777;DHT22;10548;47.504;8.248;2023-05-17T12:37:02;17.90;40.70
20777;DHT22;10548;47.504;8.248;2023-05-17T12:39:30;18.30;42.80
20777;DHT22;10548;47.504;8.248;2023-05-17T12:41:57;18.30;45.30
20777;DHT22;10548;47.504;8.248;2023-05-17T12:44:25;17.80;45.10
20777;DHT22;10548;47.504;8.248;2023-05-17T12:46:53;18.20;45.00
20777;DHT22;10548;47.504;8.248;2023-05-17T12:49:22;18.00;43.60
20777;DHT22;10548;47.504;8.248;2023-05-17T12:51:49;18.40;43.70
20777;DHT22;10548;47.504;8.248;2023-05-17T12:54:27;19.70;43.80
20777;DHT22;10548;47.504;8.248;2023-05-17T12:56:54;18.60;42.10
20777;DHT22;10548;47.504;8.248;2023-05-17T12:59:21;18.90;42.40
20777;DHT22;10548;47.504;8.248;2023-05-17T13:01:55;19.20;40.60
20777;DHT22;10548;47.504;8.248;2023-05-17T13:04:34;19.80;41.10
20777;DHT22;10548;47.504;8.248;2023-05-17T13:07:04;19.60;40.00
20777;DHT22;10548;47.504;8.248;2023-05-17T13:09:32;18.60;38.90
20777;DHT22;10548;47.504;8.248;2023-05-17T13:12:08;17.80;41.90
20777;DHT22;10548;47.504;8.248;2023-05-17T13:14:44;18.10;43.80
20777;DHT22;10548;47.504;8.248;2023-05-17T13:17:18;17.50;42.00
20777;DHT22;10548;47.504;8.248;2023-05-17T13:19:48;16.90;42.50
20777;DHT22;10548;47.504;8.248;2023-05-17T13:22:16;17.30;50.60
20777;DHT22;10548;47.504;8.248;2023-05-17T13:24:43;18.20;51.70
20777;DHT22;10548;47.504;8.248;2023-05-17T13:27:11;18.80;49.80
20777;DHT22;10548;47.504;8.248;2023-05-17T13:32:09;18.00;52.40
20777;DHT22;10548;47.504;8.248;2023-05-17T13:34:38;17.50;38.10
20777;DHT22;10548;47.504;8.248;2023-05-17T13:37:06;18.00;35.20
20777;DHT22;10548;47.504;8.248;2023-05-17T13:39:37;18.50;34.50
20777;DHT22;10548;47.504;8.248;2023-05-17T13:42:05;18.40;36.90
20777;DHT22;10548;47.504;8.248;2023-05-17T13:44:32;18.30;32.40
20777;DHT22;10548;47.504;8.248;2023-05-17T13:46:59;18.50;34.90
20777;DHT22;10548;47.504;8.248;2023-05-17T13:49:26;18.80;35.50
20777;DHT22;10548;47.504;8.248;2023-05-17T13:51:54;19.00;36.60
20777;DHT22;10548;47.504;8.248;2023-05-17T13:54:22;19.00;34.30
20777;DHT22;10548;47.504;8.248;2023-05-17T13:56:49;18.80;33.30
20777;DHT22;10548;47.504;8.248;2023-05-17T13:59:17;18.60;33.90
20777;DHT22;10548;47.504;8.248;2023-05-17T14:01:44;18.70;33.70
20777;DHT22;10548;47.504;8.248;2023-05-17T14:14:05;18.60;31.80
20777;DHT22;10548;47.504;8.248;2023-05-17T14:16:33;18.40;33.50
20777;DHT22;10548;47.504;8.248;2023-05-17T14:19:00;19.10;32.00
20777;DHT22;10548;47.504;8.248;2023-05-17T14:21:30;19.20;32.90
20777;DHT22;10548;47.504;8.248;2023-05-17T14:23:57;19.10;33.50
20777;DHT22;10548;47.504;8.248;2023-05-17T14:26:24;19.00;32.10
20777;DHT22;10548;47.504;8.248;2023-05-17T14:28:52;18.40;31.80
20777;DHT22;10548;47.504;8.248;2023-05-17T14:31:19;18.70;33.00
20777;DHT22;10548;47.504;8.248;2023-05-17T14:33:47;18.80;32.50
20777;DHT22;10548;47.504;8.248;2023-05-17T14:36:14;19.20;32.40
20777;DHT22;10548;47.504;8.248;2023-05-17T14:38:41;19.40;32.10
20777;DHT22;10548;47.504;8.248;2023-05-17T14:41:08;19.30;32.10
20777;DHT22;10548;47.504;8.248;2023-05-17T14:43:35;19.20;31.80
20777;DHT22;10548;47.504;8.248;2023-05-17T14:46:03;19.30;31.90
20777;DHT22;10548;47.504;8.248;2023-05-17T14:48:30;19.30;31.90
20777;DHT22;10548;47.504;8.248;2023-05-17T14:50:57;19.70;31.60
20777;DHT22;10548;47.504;8.248;2023-05-17T14:53:24;20.00;31.40
20777;DHT22;10548;47.504;8.248;2023-05-17T14:55:58;20.10;32.40
20777;DHT22;10548;47.504;8.248;2023-05-17T14:58:25;18.20;30.70
20777;DHT22;10548;47.504;8.248;2023-05-17T15:00:53;17.80;34.30
20777;DHT22;10548;47.504;8.248;2023-05-17T15:03:31;18.00;35.50
20777;DHT22;10548;47.504;8.248;2023-05-17T15:05:59;17.60;35.70
20777;DHT22;10548;47.504;8.248;2023-05-17T15:08:31;17.50;35.60
20777;DHT22;10548;47.504;8.248;2023-05-17T15:10:58;18.00;37.00
20777;DHT22;10548;47.504;8.248;2023-05-17T15:13:25;18.10;33.10
20777;DHT22;10548;47.504;8.248;2023-05-17T15:15:52;18.40;32.30
20777;DHT22;10548;47.504;8.248;2023-05-17T15:18:20;18.40;32.50
20777;DHT22;10548;47.504;8.248;2023-05-17T15:20:48;18.40;34.30
20777;DHT22;10548;47.504;8.248;2023-05-17T15:25:42;17.50;32.50
20777;DHT22;10548;47.504;8.248;2023-05-17T15:28:10;17.40;34.70
20777;DHT22;10548;47.504;8.248;2023-05-17T15:30:37;17.30;35.00
20777;DHT22;10548;47.504;8.248;2023-05-17T15:33:04;17.10;35.70
20777;DHT22;10548;47.504;8.248;2023-05-17T15:35:32;17.10;36.00
20777;DHT22;10548;47.504;8.248;2023-05-17T15:38:02;17.20;36.40
20777;DHT22;10548;47.504;8.248;2023-05-17T15:40:31;17.10;36.40
20777;DHT22;10548;47.504;8.248;2023-05-17T15:42:59;17.10;36.40
20777;DHT22;10548;47.504;8.248;2023-05-17T15:45:27;17.30;39.20
20777;DHT22;10548;47.504;8.248;2023-05-17T15:47:55;17.40;36.40
20777;DHT22;10548;47.504;8.248;2023-05-17T15:50:23;17.50;35.00
20777;DHT22;10548;47.504;8.248;2023-05-17T15:52:50;17.80;35.60
20777;DHT22;10548;47.504;8.248;2023-05-17T15:55:17;18.00;34.00
20777;DHT22;10548;47.504;8.248;2023-05-17T15:57:44;17.90;35.80
20777;DHT22;10548;47.504;8.248;2023-05-17T16:00:13;17.20;35.80
20777;DHT22;10548;47.504;8.248;2023-05-17T16:02:40;16.90;36.70
20777;DHT22;10548;47.504;8.248;2023-05-17T16:05:08;16.50;37.20
20777;DHT22;10548;47.504;8.248;2023-05-17T16:07:35;16.10;37.90
20777;DHT22;10548;47.504;8.248;2023-05-17T16:10:02;15.80;38.30
20777;DHT22;10548;47.504;8.248;2023-05-17T16:12:29;15.70;38.50
20777;DHT22;10548;47.504;8.248;2023-05-17T16:14:58;15.50;38.30
20777;DHT22;10548;47.504;8.248;2023-05-17T16:17:26;15.50;38.50
20777;DHT22;10548;47.504;8.248;2023-05-17T16:19:53;15.60;39.20
20777;DHT22;10548;47.504;8.248;2023-05-17T16:22:20;15.60;39.50
20777;DHT22;10548;47.504;8.248;2023-05-17T16:24:51;15.70;39.20
20777;DHT22;10548;47.504;8.248;2023-05-17T16:27:20;15.70;39.50
20777;DHT22;10548;47.504;8.248;2023-05-17T16:29:47;15.90;40.10
20777;DHT22;10548;47.504;8.248;2023-05-17T16:32:14;15.70;39.40
20777;DHT22;10548;47.504;8.248;2023-05-17T16:34:42;15.40;39.40
20777;DHT22;10548;47.504;8.248;2023-05-17T16:37:09;15.70;41.20
20777;DHT22;10548;47.504;8.248;2023-05-17T16:39:37;15.60;41.20
20777;DHT22;10548;47.504;8.248;2023-05-17T16:42:04;15.70;41.30
20777;DHT22;10548;47.504;8.248;2023-05-17T16:44:31;15.60;40.40
20777;DHT22;10548;47.504;8.248;2023-05-17T16:46:59;15.80;43.40
20777;DHT22;10548;47.504;8.248;2023-05-17T16:49:26;15.70;42.10
20777;DHT22;10548;47.504;8.248;2023-05-17T16:51:55;15.70;45.10
20777;DHT22;10548;47.504;8.248;2023-05-17T16:54:23;15.40;42.40
20777;DHT22;10548;47.504;8.248;2023-05-17T16:56:52;15.30;43.40
20777;DHT22;10548;47.504;8.248;2023-05-17T16:59:20;15.30;43.30
20777;DHT22;10548;47.504;8.248;2023-05-17T17:01:47;15.30;43.70
20777;DHT22;10548;47.504;8.248;2023-05-17T17:04:14;15.20;43.10
20777;DHT22;10548;47.504;8.248;2023-05-17T17:06:43;15.10;44.00
20777;DHT22;10548;47.504;8.248;2023-05-17T17:09:10;15.20;42.70
20777;DHT22;10548;47.504;8.248;2023-05-17T17:11:38;15.20;46.30
20777;DHT22;10548;47.504;8.248;2023-05-17T17:14:05;15.20;44.70
20777;DHT22;10548;47.504;8.248;2023-05-17T17:16:32;15.20;45.00
20777;DHT22;10548;47.504;8.248;2023-05-17T17:18:59;15.40;44.80
20777;DHT22;10548;47.504;8.248;2023-05-17T17:21:27;15.20;42.80
20777;DHT22;10548;47.504;8.248;2023-05-17T17:23:55;15.20;44.90
20777;DHT22;10548;47.504;8.248;2023-05-17T17:26:22;15.50;43.70
20777;DHT22;10548;47.504;8.248;2023-05-17T17:28:49;15.80;43.80
20777;DHT22;10548;47.504;8.248;2023-05-17T17:31:16;15.70;44.70
20777;DHT22;10548;47.504;8.248;2023-05-17T17:33:44;15.00;46.10
20777;DHT22;10548;47.504;8.248;2023-05-17T17:36:11;15.10;48.50
20777;DHT22;10548;47.504;8.248;2023-05-17T17:38:38;15.20;49.30
20777;DHT22;10548;47.504;8.248;2023-05-17T17:41:05;15.40;49.90
20777;DHT22;10548;47.504;8.248;2023-05-17T17:43:32;15.40;50.30
20777;DHT22;10548;47.504;8.248;2023-05-17T17:45:59;15.40;51.20
20777;DHT22;10548;47.504;8.248;2023-05-17T17:48:26;15.60;50.30
20777;DHT22;10548;47.504;8.248;2023-05-17T17:50:53;15.50;51.00
20777;DHT22;10548;47.504;8.248;2023-05-17T17:53:21;15.10;51.40
20777;DHT22;10548;47.504;8.248;2023-05-17T17:55:49;14.80;53.60
20777;DHT22;10548;47.504;8.248;2023-05-17T17:58:16;14.40;53.60
20777;DHT22;10548;47.504;8.248;2023-05-17T18:00:43;14.30;54.40
20777;DHT22;10548;47.504;8.248;2023-05-17T18:03:10;14.30;56.10
20777;DHT22;10548;47.504;8.248;2023-05-17T18:05:39;14.00;55.90
20777;DHT22;10548;47.504;8.248;2023-05-17T18:08:06;13.90;57.20
20777;DHT22;10548;47.504;8.248;2023-05-17T18:10:34;13.90;56.90
20777;DHT22;10548;47.504;8.248;2023-05-17T18:13:01;13.70;57.50
20777;DHT22;10548;47.504;8.248;2023-05-17T18:15:28;13.70;58.10
20777;DHT22;10548;47.504;8.248;2023-05-17T18:17:56;13.50;58.70
20777;DHT22;10548;47.504;8.248;2023-05-17T18:20:24;13.60;60.50
20777;DHT22;10548;47.504;8.248;2023-05-17T18:22:52;13.60;60.40
20777;DHT22;10548;47.504;8.248;2023-05-17T18:25:20;13.50;60.70
20777;DHT22;10548;47.504;8.248;2023-05-17T18:27:47;13.30;61.00
20777;DHT22;10548;47.504;8.248;2023-05-17T18:30:15;13.40;60.70
20777;DHT22;10548;47.504;8.248;2023-05-17T18:32:42;13.40;61.40
20777;DHT22;10548;47.504;8.248;2023-05-17T18:35:10;13.30;63.80
20777;DHT22;10548;47.504;8.248;2023-05-17T18:37:37;13.30;63.40
20777;DHT22;10548;47.504;8.248;2023-05-17T18:40:05;13.20;63.80
20777;DHT22;10548;47.504;8.248;2023-05-17T18:42:33;13.20;63.70
20777;DHT22;10548;47.504;8.248;2023-05-17T18:45:00;13.20;64.60
20777;DHT22;10548;47.504;8.248;2023-05-17T18:47:27;13.10;65.60
20777;DHT22;10548;47.504;8.248;2023-05-17T18:49:54;13.20;65.60
20777;DHT22;10548;47.504;8.248;2023-05-17T18:52:21;13.10;67.80
20777;DHT22;10548;47.504;8.248;2023-05-17T18:54:49;13.00;67.30
20777;DHT22;10548;47.504;8.248;2023-05-17T18:57:16;13.00;66.60
20777;DHT22;10548;47.504;8.248;2023-05-17T18:59:43;13.00;68.30
20777;DHT22;10548;47.504;8.248;2023-05-17T19:02:10;12.90;69.60
20777;DHT22;10548;47.504;8.248;2023-05-17T19:04:38;12.90;72.20
20777;DHT22;10548;47.504;8.248;2023-05-17T19:07:06;13.00;68.90
20777;DHT22;10548;47.504;8.248;2023-05-17T19:09:33;13.00;70.50
20777;DHT22;10548;47.504;8.248;2023-05-17T19:12:00;12.90;70.70
20777;DHT22;10548;47.504;8.248;2023-05-17T19:14:27;12.80;70.40
20777;DHT22;10548;47.504;8.248;2023-05-17T19:16:54;12.80;71.10
20777;DHT22;10548;47.504;8.248;2023-05-17T19:19:23;12.80;73.40
20777;DHT22;10548;47.504;8.248;2023-05-17T19:21:51;12.80;71.90
20777;DHT22;10548;47.504;8.248;2023-05-17T19:24:18;12.80;72.00
20777;DHT22;10548;47.504;8.248;2023-05-17T19:26:45;12.80;73.50
20777;DHT22;10548;47.504;8.248;2023-05-17T19:29:13;12.70;74.50
20777;DHT22;10548;47.504;8.248;2023-05-17T19:31:40;12.60;75.00
20777;DHT22;10548;47.504;8.248;2023-05-17T19:34:07;12.60;76.20
20777;DHT22;10548;47.504;8.248;2023-05-17T19:36:35;12.60;75.20
20777;DHT22;10548;47.504;8.248;2023-05-17T19:39:02;12.60;73.20
20777;DHT22;10548;47.504;8.248;2023-05-17T19:41:29;12.50;75.50
20777;DHT22;10548;47.504;8.248;2023-05-17T19:43:56;12.50;78.70
20777;DHT22;10548;47.504;8.248;2023-05-17T19:46:23;12.50;78.00
20777;DHT22;10548;47.504;8.248;2023-05-17T19:48:51;12.40;79.10
20777;DHT22;10548;47.504;8.248;2023-05-17T19:51:18;12.40;77.80
20777;DHT22;10548;47.504;8.248;2023-05-17T19:53:45;12.40;77.60
20777;DHT22;10548;47.504;8.248;2023-05-17T19:56:21;12.30;80.20
20777;DHT22;10548;47.504;8.248;2023-05-17T19:58:49;12.30;79.10
20777;DHT22;10548;47.504;8.248;2023-05-17T20:01:17;12.20;80.00
20777;DHT22;10548;47.504;8.248;2023-05-17T20:03:44;12.30;78.70
20777;DHT22;10548;47.504;8.248;2023-05-17T20:06:12;12.10;82.00
20777;DHT22;10548;47.504;8.248;2023-05-17T20:08:40;12.10;79.10
20777;DHT22;10548;47.504;8.248;2023-05-17T20:11:08;12.00;81.90
20777;DHT22;10548;47.504;8.248;2023-05-17T20:13:35;12.00;80.80
20777;DHT22;10548;47.504;8.248;2023-05-17T20:16:07;11.90;83.10
20777;DHT22;10548;47.504;8.248;2023-05-17T20:18:41;11.90;82.70
20777;DHT22;10548;47.504;8.248;2023-05-17T20:21:10;11.90;80.30
20777;DHT22;10548;47.504;8.248;2023-05-17T20:23:38;11.80;81.00
20777;DHT22;10548;47.504;8.248;2023-05-17T20:26:06;11.90;82.80
20777;DHT22;10548;47.504;8.248;2023-05-17T20:28:33;11.70;81.90
20777;DHT22;10548;47.504;8.248;2023-05-17T20:31:00;11.60;82.50
20777;DHT22;10548;47.504;8.248;2023-05-17T20:33:27;11.60;82.80
20777;DHT22;10548;47.504;8.248;2023-05-17T20:35:54;11.60;82.90
20777;DHT22;10548;47.504;8.248;2023-05-17T20:38:21;11.50;83.00
20777;DHT22;10548;47.504;8.248;2023-05-17T20:40:49;11.50;82.80
20777;DHT22;10548;47.504;8.248;2023-05-17T20:43:18;11.50;83.10
20777;DHT22;10548;47.504;8.248;2023-05-17T20:45:45;11.50;83.00
20777;DHT22;10548;47.504;8.248;2023-05-17T20:48:12;11.50;84.20
20777;DHT22;10548;47.504;8.248;2023-05-17T20:50:40;11.40;82.60
20777;DHT22;10548;47.504;8.248;2023-05-17T20:53:07;11.30;85.30
20777;DHT22;10548;47.504;8.248;2023-05-17T20:55:36;11.20;87.00
20777;DHT22;10548;47.504;8.248;2023-05-17T20:58:03;11.20;85.60
20777;DHT22;10548;47.504;8.248;2023-05-17T21:00:30;11.20;85.80
20777;DHT22;10548;47.504;8.248;2023-05-17T21:02:58;11.10;86.90
20777;DHT22;10548;47.504;8.248;2023-05-17T21:05:25;11.10;86.60
20777;DHT22;10548;47.504;8.248;2023-05-17T21:07:54;11.10;86.70
20777;DHT22;10548;47.504;8.248;2023-05-17T21:10:22;11.10;86.90
20777;DHT22;10548;47.504;8.248;2023-05-17T21:12:49;11.10;87.70
20777;DHT22;10548;47.504;8.248;2023-05-17T21:15:17;11.10;88.60
20777;DHT22;10548;47.504;8.248;2023-05-17T21:17:44;11.10;87.30
20777;DHT22;10548;47.504;8.248;2023-05-17T21:20:12;11.00;89.10
20777;DHT22;10548;47.504;8.248;2023-05-17T21:22:39;11.00;90.30
20777;DHT22;10548;47.504;8.248;2023-05-17T21:25:07;11.10;90.30
20777;DHT22;10548;47.504;8.248;2023-05-17T21:27:34;11.00;88.20
20777;DHT22;10548;47.504;8.248;2023-05-17T21:30:01;10.90;90.10
20777;DHT22;10548;47.504;8.248;2023-05-17T21:32:28;10.90;90.90
20777;DHT22;10548;47.504;8.248;2023-05-17T21:34:56;10.90;90.10
20777;DHT22;10548;47.504;8.248;2023-05-17T21:37:25;10.90;88.80
20777;DHT22;10548;47.504;8.248;2023-05-17T21:39:52;10.80;89.20
20777;DHT22;10548;47.504;8.248;2023-05-17T21:42:19;10.70;89.60
20777;DHT22;10548;47.504;8.248;2023-05-17T21:44:47;10.80;87.20
20777;DHT22;10548;47.504;8.248;2023-05-17T21:47:14;10.60;90.20
20777;DHT22;10548;47.504;8.248;2023-05-17T21:49:41;10.50;90.00
20777;DHT22;10548;47.504;8.248;2023-05-17T21:52:08;10.50;90.30
20777;DHT22;10548;47.504;8.248;2023-05-17T21:54:35;10.50;89.60
20777;DHT22;10548;47.504;8.248;2023-05-17T21:57:03;10.40;90.30
20777;DHT22;10548;47.504;8.248;2023-05-17T21:59:30;10.50;89.10
20777;DHT22;10548;47.504;8.248;2023-05-17T22:01:57;10.40;88.60
20777;DHT22;10548;47.504;8.248;2023-05-17T22:04:24;10.50;89.00
20777;DHT22;10548;47.504;8.248;2023-05-17T22:06:55;10.50;88.90
20777;DHT22;10548;47.504;8.248;2023-05-17T22:09:22;10.40;89.30
20777;DHT22;10548;47.504;8.248;2023-05-17T22:11:49;10.40;89.00
20777;DHT22;10548;47.504;8.248;2023-05-17T22:14:16;10.30;90.00
20777;DHT22;10548;47.504;8.248;2023-05-17T22:16:43;10.20;89.30
20777;DHT22;10548;47.504;8.248;2023-05-17T22:19:10;10.10;90.40
20777;DHT22;10548;47.504;8.248;2023-05-17T22:21:38;9.90;91.40
20777;DHT22;10548;47.504;8.248;2023-05-17T22:24:05;9.90;90.90
20777;DHT22;10548;47.504;8.248;2023-05-17T22:26:33;10.00;90.30
20777;DHT22;10548;47.504;8.248;2023-05-17T22:29:00;9.80;90.80
20777;DHT22;10548;47.504;8.248;2023-05-17T22:31:27;9.70;91.00
20777;DHT22;10548;47.504;8.248;2023-05-17T22:33:54;9.70;91.50
20777;DHT22;10548;47.504;8.248;2023-05-17T22:36:22;9.60;91.50
20777;DHT22;10548;47.504;8.248;2023-05-17T22:38:50;9.40;92.60
20777;DHT22;10548;47.504;8.248;2023-05-17T22:41:18;9.30;93.20
20777;DHT22;10548;47.504;8.248;2023-05-17T22:43:45;9.30;93.00
20777;DHT22;10548;47.504;8.248;2023-05-17T22:46:12;9.30;92.30
20777;DHT22;10548;47.504;8.248;2023-05-17T22:48:39;9.20;93.00
20777;DHT22;10548;47.504;8.248;2023-05-17T22:51:06;9.20;92.40
20777;DHT22;10548;47.504;8.248;2023-05-17T22:53:33;9.30;92.80
20777;DHT22;10548;47.504;8.248;2023-05-17T22:56:00;9.20;92.70
20777;DHT22;10548;47.504;8.248;2023-05-17T22:58:27;9.10;93.40
20777;DHT22;10548;47.504;8.248;2023-05-17T23:00:54;9.10;93.00
20777;DHT22;10548;47.504;8.248;2023-05-17T23:03:22;9.10;93.00
20777;DHT22;10548;47.504;8.248;2023-05-17T23:05:49;9.10;92.60
20777;DHT22;10548;47.504;8.248;2023-05-17T23:08:28;9.10;92.80
20777;DHT22;10548;47.504;8.248;2023-05-17T23:10:56;9.00;93.30
20777;DHT22;10548;47.504;8.248;2023-05-17T23:13:24;9.00;92.80
20777;DHT22;10548;47.504;8.248;2023-05-17T23:15:52;8.90;93.10
20777;DHT22;10548;47.504;8.248;2023-05-17T23:18:19;8.90;93.20
20777;DHT22;10548;47.504;8.248;2023-05-17T23:20:47;8.80;93.60
20777;DHT22;10548;47.504;8.248;2023-05-17T23:23:15;8.90;92.90
20777;DHT22;10548;47.504;8.248;2023-05-17T23:25:42;8.90;93.30
20777;DHT22;10548;47.504;8.248;2023-05-17T23:28:14;8.80;93.80
20777;DHT22;10548;47.504;8.248;2023-05-17T23:30:41;8.70;94.00
20777;DHT22;10548;47.504;8.248;2023-05-17T23:33:10;8.70;93.80
20777;DHT22;10548;47.504;8.248;2023-05-17T23:35:37;8.60;94.60
20777;DHT22;10548;47.504;8.248;2023-05-17T23:38:04;8.60;94.90
20777;DHT22;10548;47.504;8.248;2023-05-17T23:40:32;8.60;94.70
20777;DHT22;10548;47.504;8.248;2023-05-17T23:43:00;8.60;94.50
20777;DHT22;10548;47.504;8.248;2023-05-17T23:45:27;8.50;95.20
20777;DHT22;10548;47.504;8.248;2023-05-17T23:47:55;8.40;95.80
20777;DHT22;10548;47.504;8.248;2023-05-17T23:50:26;8.40;95.40
20777;DHT22;10548;47.504;8.248;2023-05-17T23:52:53;8.40;95.50
20777;DHT22;10548;47.504;8.248;2023-05-17T23:55:20;8.40;95.70
20777;DHT22;10548;47.504;8.248;2023-05-17T23:57:48;8.30;95.90
